Time;durP1;ratioP1;P1;durP2;ratioP2;P2;SDS_P1;SDS_P2;PMS_P1;PMS_P2;Temp;Humidity;BMP_temperature;BMP_pressure;BME280_temperature;BME280_humidity;BME280_pressure;Samples;Min_cycle;Max_cycle;Signal;HPM_P1;HPM_P2
2021/09/05 00:01:07;;;;;;;69.85;49.33;;;17.10;87.50;;;;;;4995612;28;20070;-80
2021/09/05 00:03:33;;;;;;;73.18;51.28;;;17.10;87.50;;;;;;4992334;28;20042;-79
2021/09/05 00:05:59;;;;;;;77.55;52.53;;;17.10;87.80;;;;;;4998368;28;20465;-79
2021/09/05 00:08:25;;;;;;;73.75;51.03;;;17.10;87.90;;;;;;5013503;28;20109;-79
2021/09/05 00:10:51;;;;;;;76.63;52.00;;;17.10;87.90;;;;;;5016953;28;20556;-79
2021/09/05 00:13:17;;;;;;;77.60;51.17;;;17.00;87.90;;;;;;5001429;28;21122;-79
2021/09/05 00:15:42;;;;;;;75.47;52.90;;;17.00;88.10;;;;;;5011669;28;20038;-79
2021/09/05 00:18:08;;;;;;;73.60;51.00;;;17.00;88.10;;;;;;5008661;28;20132;-79
2021/09/05 00:20:34;;;;;;;70.68;50.80;;;17.00;88.00;;;;;;5020402;28;20080;-80
2021/09/05 00:23:03;;;;;;;76.38;52.40;;;17.00;88.10;;;;;;5023133;28;20218;-79
2021/09/05 00:25:30;;;;;;;71.03;49.90;;;17.00;88.10;;;;;;4999222;28;20037;-80
2021/09/05 00:27:56;;;;;;;74.93;52.80;;;17.00;88.00;;;;;;5007803;28;20092;-79
2021/09/05 00:30:21;;;;;;;73.97;50.97;;;17.00;88.00;;;;;;5008127;28;20049;-80
2021/09/05 00:32:47;;;;;;;76.18;51.85;;;17.00;88.10;;;;;;5001337;28;20042;-79
2021/09/05 00:35:14;;;;;;;71.43;51.00;;;17.00;88.00;;;;;;5012742;28;20552;-80
2021/09/05 00:37:40;;;;;;;70.57;48.92;;;17.00;88.00;;;;;;5009338;28;20049;-79
2021/09/05 00:40:07;;;;;;;68.07;49.30;;;17.00;88.00;;;;;;5001976;28;20083;-79
2021/09/05 00:42:32;;;;;;;70.78;50.72;;;17.00;88.00;;;;;;5007303;28;20478;-79
2021/09/05 00:44:58;;;;;;;70.35;50.65;;;16.90;88.00;;;;;;4999557;28;20038;-79
2021/09/05 00:47:24;;;;;;;67.72;48.83;;;16.90;88.00;;;;;;5006560;28;20581;-79
2021/09/05 00:49:49;;;;;;;70.88;49.58;;;16.90;88.10;;;;;;5001676;28;20061;-79
2021/09/05 00:52:15;;;;;;;76.72;52.38;;;16.90;88.10;;;;;;5009055;28;20061;-80
2021/09/05 00:54:42;;;;;;;71.65;50.95;;;16.80;88.10;;;;;;5005622;28;20129;-79
2021/09/05 00:57:12;;;;;;;69.28;49.95;;;16.80;88.20;;;;;;4998082;28;20441;-79
2021/09/05 00:59:39;;;;;;;68.32;47.38;;;16.80;88.20;;;;;;5018406;28;21159;-79
2021/09/05 01:02:05;;;;;;;72.10;50.53;;;16.80;88.20;;;;;;5002825;28;20038;-79
2021/09/05 01:04:31;;;;;;;72.70;50.80;;;16.80;88.30;;;;;;5003879;28;20496;-79
2021/09/05 01:06:57;;;;;;;83.95;52.90;;;16.70;88.30;;;;;;5003717;28;20429;-79
2021/09/05 01:09:23;;;;;;;74.28;51.80;;;16.60;88.50;;;;;;4999347;28;20038;-80
2021/09/05 01:11:49;;;;;;;74.53;53.05;;;16.60;88.70;;;;;;5006449;28;20491;-80
2021/09/05 01:14:15;;;;;;;71.80;50.28;;;16.60;88.80;;;;;;5002554;28;20533;-79
2021/09/05 01:16:42;;;;;;;76.35;52.58;;;16.60;88.80;;;;;;5005772;28;20089;-79
2021/09/05 01:19:09;;;;;;;76.88;53.72;;;16.60;88.90;;;;;;4999092;28;20153;-80
2021/09/05 01:21:35;;;;;;;84.50;56.13;;;16.60;88.90;;;;;;4997872;28;20041;-79
2021/09/05 01:24:03;;;;;;;82.63;55.10;;;16.50;88.90;;;;;;4999085;28;20042;-79
2021/09/05 01:26:30;;;;;;;73.43;50.65;;;16.50;89.10;;;;;;4996039;28;20042;-79
2021/09/05 01:28:56;;;;;;;84.82;55.25;;;16.50;89.10;;;;;;4999796;28;20048;-79
2021/09/05 01:31:23;;;;;;;75.30;52.13;;;16.40;89.30;;;;;;4996640;28;20469;-81
2021/09/05 01:33:49;;;;;;;86.60;57.85;;;16.50;89.20;;;;;;5000132;28;20117;-79
2021/09/05 01:36:16;;;;;;;85.47;57.25;;;16.40;89.30;;;;;;5008823;28;20034;-80
2021/09/05 01:38:42;;;;;;;88.75;58.20;;;16.40;89.40;;;;;;5011331;28;20092;-80
2021/09/05 01:41:07;;;;;;;84.88;55.80;;;16.30;89.60;;;;;;4998528;28;20043;-79
2021/09/05 01:43:33;;;;;;;82.35;56.05;;;16.30;89.70;;;;;;5010334;28;20044;-80
2021/09/05 01:45:59;;;;;;;88.75;56.55;;;16.30;89.70;;;;;;5001822;28;20096;-78
2021/09/05 01:48:25;;;;;;;87.97;59.38;;;16.30;89.70;;;;;;5013808;28;20045;-78
2021/09/05 01:50:51;;;;;;;86.43;57.08;;;16.30;89.60;;;;;;4999316;28;20042;-79
2021/09/05 01:53:16;;;;;;;88.95;56.45;;;16.30;89.50;;;;;;4999077;28;20109;-81
2021/09/05 01:55:42;;;;;;;89.80;57.83;;;16.30;89.50;;;;;;5011233;28;20038;-79
2021/09/05 01:58:08;;;;;;;88.70;56.10;;;16.20;89.60;;;;;;5016562;28;20037;-79
2021/09/05 02:00:34;;;;;;;90.45;58.28;;;16.20;89.70;;;;;;5014662;28;20389;-79
2021/09/05 02:02:59;;;;;;;82.65;54.08;;;16.20;89.70;;;;;;5006721;28;20025;-79
2021/09/05 02:05:25;;;;;;;86.13;56.08;;;16.30;89.70;;;;;;4999129;28;20129;-80
2021/09/05 02:07:50;;;;;;;82.78;54.17;;;16.20;89.60;;;;;;5003667;28;20061;-80
2021/09/05 02:10:16;;;;;;;89.15;57.63;;;16.30;89.70;;;;;;5016417;28;20505;-77
2021/09/05 02:12:42;;;;;;;81.25;53.38;;;16.20;89.50;;;;;;5012959;28;20037;-79
2021/09/05 02:15:09;;;;;;;84.10;54.75;;;16.20;89.60;;;;;;5026645;28;20053;-78
2021/09/05 02:17:34;;;;;;;84.90;56.38;;;16.20;89.60;;;;;;4999652;28;20030;-79
2021/09/05 02:20:00;;;;;;;85.03;54.55;;;16.20;89.60;;;;;;4997711;28;20046;-78
2021/09/05 02:22:26;;;;;;;82.60;54.83;;;16.20;89.60;;;;;;5006118;28;20457;-79
2021/09/05 02:24:52;;;;;;;79.80;53.47;;;16.20;89.60;;;;;;5001343;28;20050;-78
2021/09/05 02:27:17;;;;;;;82.75;53.45;;;16.20;89.60;;;;;;5000912;28;20041;-78
2021/09/05 02:29:43;;;;;;;79.25;52.92;;;16.20;89.60;;;;;;5001070;28;20118;-78
2021/09/05 02:32:09;;;;;;;86.53;53.90;;;16.20;89.60;;;;;;5011167;28;20094;-79
2021/09/05 02:34:34;;;;;;;84.00;53.97;;;16.10;89.60;;;;;;5006572;28;20129;-78
2021/09/05 02:37:00;;;;;;;87.03;55.70;;;16.10;89.70;;;;;;5002268;28;20057;-78
2021/09/05 02:39:26;;;;;;;88.15;56.05;;;16.10;89.70;;;;;;5019368;28;20591;-80
2021/09/05 02:41:52;;;;;;;91.00;56.35;;;16.10;89.80;;;;;;5001640;28;20029;-79
2021/09/05 02:44:18;;;;;;;88.95;57.20;;;16.00;89.90;;;;;;5019801;28;20037;-78
2021/09/05 02:46:44;;;;;;;86.50;55.97;;;16.10;90.00;;;;;;5020993;28;20052;-78
2021/09/05 02:49:10;;;;;;;82.18;53.95;;;16.00;90.00;;;;;;5011509;28;20049;-78
2021/09/05 02:51:37;;;;;;;85.78;55.30;;;16.00;90.00;;;;;;5014848;28;20033;-78
2021/09/05 02:54:03;;;;;;;86.60;55.97;;;16.00;90.00;;;;;;5030296;28;20129;-78
2021/09/05 02:56:29;;;;;;;81.45;55.30;;;16.00;89.90;;;;;;5010754;28;20594;-79
2021/09/05 02:58:54;;;;;;;83.22;55.13;;;16.00;90.00;;;;;;5022535;28;20033;-79
2021/09/05 03:01:20;;;;;;;80.53;52.33;;;16.00;89.90;;;;;;5009263;28;20049;-78
2021/09/05 03:03:46;;;;;;;89.45;56.03;;;16.00;89.80;;;;;;5002414;28;20092;-78
2021/09/05 03:06:11;;;;;;;83.13;53.22;;;15.90;89.80;;;;;;5002317;28;20392;-78
2021/09/05 03:08:37;;;;;;;87.63;56.42;;;16.00;89.80;;;;;;5000660;28;20128;-78
2021/09/05 03:11:04;;;;;;;85.47;55.33;;;15.90;89.70;;;;;;5009441;28;20069;-78
2021/09/05 03:13:30;;;;;;;84.78;52.75;;;15.90;89.80;;;;;;4999319;28;20366;-78
2021/09/05 03:15:55;;;;;;;82.88;52.10;;;15.90;89.80;;;;;;5001352;28;20500;-78
2021/09/05 03:18:21;;;;;;;85.55;56.15;;;15.90;89.80;;;;;;5000996;28;20096;-78
2021/09/05 03:20:47;;;;;;;84.00;53.90;;;15.80;89.90;;;;;;5006849;28;20054;-78
2021/09/05 03:23:13;;;;;;;88.05;55.05;;;15.70;90.20;;;;;;5001687;28;21841;-79
2021/09/05 03:25:39;;;;;;;85.10;55.40;;;15.60;90.40;;;;;;5013354;28;20042;-78
2021/09/05 03:28:04;;;;;;;91.65;56.28;;;15.70;90.30;;;;;;5013534;28;20037;-78
2021/09/05 03:30:30;;;;;;;81.40;51.70;;;15.80;90.20;;;;;;5006800;28;20393;-78
2021/09/05 03:32:56;;;;;;;84.63;54.42;;;15.80;90.00;;;;;;5000125;28;20034;-78
2021/09/05 03:35:21;;;;;;;86.90;55.58;;;15.80;90.00;;;;;;4999425;28;20042;-78
2021/09/05 03:37:47;;;;;;;85.57;55.13;;;15.70;90.00;;;;;;5010406;28;20544;-78
2021/09/05 03:40:13;;;;;;;82.68;53.17;;;15.70;90.00;;;;;;5016634;28;20050;-78
2021/09/05 03:42:39;;;;;;;88.10;54.08;;;15.70;90.10;;;;;;5015882;28;20473;-78
2021/09/05 03:45:05;;;;;;;81.80;52.58;;;15.70;90.10;;;;;;5002248;28;20088;-78
2021/09/05 03:47:30;;;;;;;84.43;54.53;;;15.70;90.10;;;;;;5005183;28;20552;-77
2021/09/05 03:49:56;;;;;;;81.10;52.50;;;15.60;90.10;;;;;;5012980;28;20972;-78
2021/09/05 03:52:22;;;;;;;82.63;53.28;;;15.60;90.10;;;;;;5001138;28;20121;-77
2021/09/05 03:54:48;;;;;;;87.50;53.72;;;15.60;90.20;;;;;;4998689;28;20357;-78
2021/09/05 03:57:13;;;;;;;89.70;55.72;;;15.60;90.30;;;;;;5007820;28;20054;-79
2021/09/05 03:59:39;;;;;;;88.40;55.25;;;15.60;90.30;;;;;;4998885;28;20049;-78
2021/09/05 04:02:05;;;;;;;90.28;55.15;;;15.60;90.20;;;;;;5009259;28;20108;-78
2021/09/05 04:04:30;;;;;;;91.57;53.92;;;15.50;90.30;;;;;;5006470;28;20141;-80
2021/09/05 04:07:02;;;;;;;85.75;53.53;;;15.50;90.30;;;;;;4995845;28;20038;-78
2021/09/05 04:12:17;;;;;;;87.90;52.33;;;15.50;90.40;;;;;;5011820;28;20168;-77
2021/09/05 04:14:43;;;;;;;87.38;54.47;;;15.40;90.40;;;;;;5005780;28;20042;-78
2021/09/05 04:17:09;;;;;;;91.93;57.50;;;15.40;90.50;;;;;;5000426;28;20041;-78
2021/09/05 04:19:35;;;;;;;89.68;54.85;;;15.30;90.60;;;;;;5003113;28;20579;-78
2021/09/05 04:22:04;;;;;;;89.70;56.33;;;15.30;90.70;;;;;;5005394;28;20449;-78
2021/09/05 04:24:30;;;;;;;96.40;57.67;;;15.20;90.80;;;;;;5013142;28;20033;-80
2021/09/05 04:26:56;;;;;;;92.50;53.40;;;15.10;91.00;;;;;;5005008;28;20044;-80
2021/09/05 04:29:21;;;;;;;94.22;56.42;;;15.10;91.20;;;;;;5000453;28;20041;-78
2021/09/05 04:31:47;;;;;;;98.93;56.40;;;15.10;91.20;;;;;;5008713;28;20037;-78
2021/09/05 04:34:13;;;;;;;97.15;56.47;;;15.10;91.30;;;;;;5000873;28;20434;-78
2021/09/05 04:36:39;;;;;;;91.57;55.33;;;15.00;91.40;;;;;;5003330;28;20611;-78
2021/09/05 04:39:07;;;;;;;97.70;57.08;;;15.00;91.50;;;;;;5004754;28;20500;-79
2021/09/05 04:41:33;;;;;;;91.38;54.47;;;15.00;91.40;;;;;;5012162;28;20049;-79
2021/09/05 04:43:59;;;;;;;93.60;56.25;;;15.10;91.40;;;;;;5019534;28;20034;-78
2021/09/05 04:46:24;;;;;;;87.53;53.42;;;15.10;91.30;;;;;;5021706;28;20502;-78
2021/09/05 04:48:50;;;;;;;88.43;54.72;;;15.10;91.10;;;;;;5017907;28;20044;-78
2021/09/05 04:51:16;;;;;;;88.63;53.63;;;15.00;91.00;;;;;;5020180;28;20052;-79
2021/09/05 04:53:41;;;;;;;92.82;52.47;;;15.00;91.00;;;;;;4997057;28;20681;-78
2021/09/05 04:56:07;;;;;;;96.70;55.80;;;15.00;91.10;;;;;;5000293;28;20038;-78
2021/09/05 04:58:33;;;;;;;88.88;53.22;;;15.00;91.10;;;;;;5006894;28;20473;-78
2021/09/05 05:00:59;;;;;;;89.18;54.53;;;15.00;91.20;;;;;;5012570;28;20538;-80
2021/09/05 05:03:24;;;;;;;88.03;53.00;;;15.00;91.10;;;;;;4997897;28;20030;-79
2021/09/05 05:05:50;;;;;;;86.50;52.00;;;15.00;91.00;;;;;;5006877;28;20083;-78
2021/09/05 05:08:15;;;;;;;83.88;52.15;;;15.00;90.90;;;;;;5001627;28;20053;-78
2021/09/05 05:10:44;;;;;;;81.20;52.10;;;15.00;91.00;;;;;;5001890;28;20113;-79
2021/09/05 05:13:09;;;;;;;88.80;54.03;;;15.00;90.90;;;;;;5029607;28;20018;-79
2021/09/05 05:15:35;;;;;;;80.97;50.92;;;15.00;90.90;;;;;;5043627;28;20458;-80
2021/09/05 05:18:01;;;;;;;81.20;50.63;;;15.00;90.90;;;;;;5035880;28;20041;-79
2021/09/05 05:20:29;;;;;;;78.93;51.15;;;15.00;90.90;;;;;;5040660;28;20109;-78
2021/09/05 05:22:54;;;;;;;86.18;51.38;;;15.00;90.90;;;;;;5025058;28;20033;-78
2021/09/05 05:25:20;;;;;;;76.65;47.33;;;15.00;90.90;;;;;;5017918;28;20568;-78
2021/09/05 05:27:46;;;;;;;85.20;52.15;;;15.10;90.90;;;;;;5020656;28;20553;-78
2021/09/05 05:30:13;;;;;;;79.45;49.00;;;15.10;90.70;;;;;;5018560;28;20050;-79
2021/09/05 05:32:39;;;;;;;80.63;51.58;;;15.10;90.80;;;;;;5016291;28;20539;-79
2021/09/05 05:35:05;;;;;;;74.78;47.10;;;15.10;90.60;;;;;;5018710;28;20041;-79
2021/09/05 05:37:31;;;;;;;71.78;47.78;;;15.10;90.60;;;;;;5019789;28;20041;-80
2021/09/05 05:39:57;;;;;;;81.68;50.08;;;15.20;90.50;;;;;;5020722;28;20103;-78
2021/09/05 05:42:22;;;;;;;78.40;50.25;;;15.20;90.30;;;;;;5021214;28;20091;-79
2021/09/05 05:44:48;;;;;;;74.35;47.90;;;15.20;89.80;;;;;;5020122;28;20046;-78
2021/09/05 05:47:14;;;;;;;73.10;48.28;;;15.30;89.60;;;;;;5016783;28;20053;-78
2021/09/05 05:49:43;;;;;;;82.50;50.95;;;15.20;89.40;;;;;;5014991;28;20296;-78
2021/09/05 05:52:09;;;;;;;80.50;50.45;;;15.20;89.50;;;;;;5014458;28;20053;-79
2021/09/05 05:54:35;;;;;;;80.20;49.80;;;15.20;89.70;;;;;;5010891;28;20121;-78
2021/09/05 05:57:00;;;;;;;74.78;48.00;;;15.20;89.70;;;;;;5019661;28;20927;-79
2021/09/05 05:59:26;;;;;;;77.30;50.30;;;15.30;89.60;;;;;;5020951;28;20083;-77
2021/09/05 06:01:52;;;;;;;71.32;47.20;;;15.30;89.60;;;;;;5020620;28;20038;-78
2021/09/05 06:04:17;;;;;;;75.13;48.67;;;15.30;89.30;;;;;;5022859;28;20045;-76
2021/09/05 06:06:43;;;;;;;76.05;49.55;;;15.40;89.30;;;;;;5020408;28;21363;-77
2021/09/05 06:09:09;;;;;;;79.05;48.33;;;15.50;89.30;;;;;;5020788;28;20477;-78
2021/09/05 06:11:34;;;;;;;69.90;46.22;;;15.50;88.80;;;;;;5022010;28;20465;-78
2021/09/05 06:14:00;;;;;;;69.45;45.67;;;15.60;88.50;;;;;;5020148;28;20041;-76
2021/09/05 06:16:28;;;;;;;72.65;48.88;;;15.60;88.50;;;;;;5021403;28;20053;-77
2021/09/05 06:18:54;;;;;;;70.53;46.70;;;15.60;88.70;;;;;;5020767;28;20085;-77
2021/09/05 06:21:19;;;;;;;74.65;47.42;;;15.60;88.50;;;;;;5018596;28;20390;-78
2021/09/05 06:23:45;;;;;;;74.68;48.90;;;15.60;88.40;;;;;;5020772;28;20041;-76
2021/09/05 06:26:11;;;;;;;72.97;46.45;;;15.70;88.50;;;;;;5020523;28;20053;-76
2021/09/05 06:28:36;;;;;;;78.43;48.92;;;15.70;88.40;;;;;;5020803;28;20037;-76
2021/09/05 06:31:03;;;;;;;73.95;47.75;;;15.70;88.30;;;;;;5021691;28;20049;-77
2021/09/05 06:33:29;;;;;;;73.22;47.75;;;15.80;88.50;;;;;;5019520;28;20049;-77
2021/09/05 06:35:54;;;;;;;71.75;45.92;;;15.80;88.30;;;;;;5019489;28;20045;-76
2021/09/05 06:38:20;;;;;;;68.82;44.72;;;15.80;88.30;;;;;;5019319;28;20752;-77
2021/09/05 06:40:46;;;;;;;73.85;45.83;;;16.00;88.40;;;;;;5021035;28;20053;-76
2021/09/05 06:43:11;;;;;;;67.90;45.10;;;16.00;87.80;;;;;;5020654;28;20491;-76
2021/09/05 06:45:37;;;;;;;71.40;47.53;;;16.10;87.80;;;;;;5007689;28;20363;-77
2021/09/05 06:48:04;;;;;;;68.70;43.85;;;16.20;87.20;;;;;;4998709;28;20450;-77
2021/09/05 06:50:30;;;;;;;70.47;47.15;;;16.30;87.40;;;;;;5012013;28;20045;-79
2021/09/05 06:52:55;;;;;;;68.93;45.53;;;16.40;87.40;;;;;;5031728;28;20048;-78
2021/09/05 06:55:21;;;;;;;67.35;42.80;;;16.60;86.90;;;;;;5021819;28;20068;-74
2021/09/05 06:57:48;;;;;;;66.32;42.25;;;16.70;85.60;;;;;;5020188;28;20064;-74
2021/09/05 07:00:14;;;;;;;63.55;44.13;;;16.90;85.50;;;;;;5019495;28;20436;-73
2021/09/05 07:02:39;;;;;;;65.63;44.75;;;17.00;85.00;;;;;;5022649;28;20038;-74
2021/09/05 07:05:06;;;;;;;66.60;46.30;;;17.00;84.80;;;;;;5013671;28;20053;-75
2021/09/05 07:07:31;;;;;;;63.67;42.15;;;17.00;84.80;;;;;;4999635;28;20045;-73
2021/09/05 07:09:57;;;;;;;61.88;44.10;;;17.10;85.00;;;;;;5017834;28;20109;-73
2021/09/05 07:12:23;;;;;;;65.65;44.72;;;17.10;84.50;;;;;;5005945;28;20049;-72
2021/09/05 07:14:49;;;;;;;64.32;43.72;;;17.20;83.80;;;;;;5000462;28;20591;-75
2021/09/05 07:17:14;;;;;;;61.15;41.53;;;17.20;83.60;;;;;;5007705;28;20048;-73
2021/09/05 07:19:40;;;;;;;60.92;42.30;;;17.40;83.60;;;;;;5001569;28;20859;-73
2021/09/05 07:22:06;;;;;;;60.70;41.85;;;17.50;83.10;;;;;;5001925;28;20042;-73
2021/09/05 07:24:32;;;;;;;61.80;42.25;;;17.60;82.30;;;;;;5010557;28;20485;-73
2021/09/05 07:26:57;;;;;;;63.05;43.20;;;17.50;82.10;;;;;;5027034;28;21234;-73
2021/09/05 07:29:23;;;;;;;60.20;42.53;;;17.60;82.60;;;;;;5004545;28;20413;-72
2021/09/05 07:31:49;;;;;;;63.40;44.42;;;17.60;82.60;;;;;;5006527;28;20038;-75
2021/09/05 07:34:16;;;;;;;60.45;41.90;;;17.60;82.30;;;;;;5020419;28;20091;-74
2021/09/05 07:36:41;;;;;;;62.10;43.70;;;17.60;82.40;;;;;;5020884;28;20033;-71
2021/09/05 07:39:09;;;;;;;59.60;41.58;;;17.70;82.40;;;;;;5010585;28;20095;-73
2021/09/05 07:41:35;;;;;;;63.75;41.42;;;17.80;82.20;;;;;;5000397;28;20516;-72
2021/09/05 07:44:00;;;;;;;59.13;42.42;;;18.00;82.00;;;;;;5005556;28;20034;-72
2021/09/05 07:46:26;;;;;;;63.13;43.22;;;18.20;81.50;;;;;;5020537;28;20082;-75
2021/09/05 07:48:52;;;;;;;62.53;43.05;;;18.30;80.40;;;;;;5020699;28;20033;-73
2021/09/05 07:51:18;;;;;;;63.08;44.25;;;18.10;80.60;;;;;;5010134;28;20754;-72
2021/09/05 07:53:43;;;;;;;59.67;43.80;;;18.10;81.80;;;;;;5011867;28;20434;-72
2021/09/05 07:56:10;;;;;;;57.67;40.05;;;18.30;81.10;;;;;;5012408;28;20080;-71
2021/09/05 07:58:35;;;;;;;56.67;41.78;;;18.50;81.10;;;;;;5017984;28;20044;-73
2021/09/05 08:01:01;;;;;;;60.78;41.33;;;18.60;80.00;;;;;;5019196;28;20041;-72
2021/09/05 08:03:27;;;;;;;62.35;42.63;;;18.60;79.50;;;;;;5019513;28;20030;-73
2021/09/05 08:05:52;;;;;;;59.42;41.72;;;18.60;79.00;;;;;;5020425;28;20030;-71
2021/09/05 08:08:18;;;;;;;58.60;39.83;;;18.60;79.60;;;;;;5021100;28;20037;-74
2021/09/05 08:10:44;;;;;;;58.33;41.38;;;18.80;80.60;;;;;;5017729;28;20175;-75
2021/09/05 08:13:10;;;;;;;55.55;41.33;;;19.20;78.70;;;;;;5018265;28;20108;-73
2021/09/05 08:15:35;;;;;;;55.22;39.72;;;19.60;77.20;;;;;;5018321;28;20029;-73
2021/09/05 08:18:02;;;;;;;56.05;40.13;;;19.40;76.00;;;;;;5017246;28;20432;-76
2021/09/05 08:20:28;;;;;;;58.38;41.53;;;19.30;77.40;;;;;;5016772;28;20164;-73
2021/09/05 08:22:53;;;;;;;59.42;41.90;;;19.30;77.50;;;;;;5020322;28;20061;-74
2021/09/05 08:25:19;;;;;;;57.72;40.72;;;19.30;77.50;;;;;;5017082;28;20393;-74
2021/09/05 08:27:45;;;;;;;59.92;41.67;;;19.40;77.50;;;;;;5016366;28;20045;-72
2021/09/05 08:30:11;;;;;;;57.00;40.13;;;19.50;77.90;;;;;;5015616;28;20045;-72
2021/09/05 08:32:37;;;;;;;54.75;40.05;;;19.60;78.20;;;;;;5021013;28;20052;-76
2021/09/05 08:35:03;;;;;;;53.78;39.97;;;19.90;76.20;;;;;;5017250;28;20030;-74
2021/09/05 08:37:30;;;;;;;53.10;38.45;;;20.10;75.50;;;;;;5011027;28;20052;-71
2021/09/05 08:39:56;;;;;;;54.60;39.30;;;20.50;74.80;;;;;;5020426;28;20045;-70
2021/09/05 08:42:21;;;;;;;54.65;40.35;;;20.80;73.30;;;;;;5015084;28;20048;-70
2021/09/05 08:44:47;;;;;;;51.90;37.45;;;20.60;74.40;;;;;;5015378;28;20044;-71
2021/09/05 08:47:12;;;;;;;52.53;38.85;;;21.00;73.50;;;;;;5014844;28;20034;-69
2021/09/05 08:49:42;;;;;;;50.20;36.75;;;21.40;70.60;;;;;;5018533;28;20045;-69
2021/09/05 08:52:08;;;;;;;52.75;37.03;;;21.20;71.90;;;;;;5015791;28;20576;-69
2021/09/05 08:54:34;;;;;;;49.38;37.33;;;21.30;72.20;;;;;;5015930;28;20047;-69
2021/09/05 08:57:01;;;;;;;49.65;37.38;;;21.70;71.20;;;;;;5015802;28;20366;-69
2021/09/05 08:59:27;;;;;;;46.70;34.88;;;21.50;69.60;;;;;;5014870;28;20474;-70
2021/09/05 09:02:01;;;;;;;45.92;35.03;;;21.70;68.90;;;;;;5014437;28;20071;-72
2021/09/05 09:04:36;;;;;;;46.15;35.95;;;22.10;67.30;;;;;;5004326;28;20414;-72
2021/09/05 09:07:14;;;;;;;50.25;38.42;;;22.60;67.20;;;;;;5008475;28;20038;-70
2021/09/05 09:09:52;;;;;;;48.28;37.03;;;22.80;65.80;;;;;;4995679;28;20509;-71
2021/09/05 09:12:17;;;;;;;48.85;35.88;;;22.00;68.90;;;;;;5008971;28;20040;-71
2021/09/05 09:14:46;;;;;;;45.15;35.30;;;21.80;69.80;;;;;;5000587;28;20038;-69
2021/09/05 09:17:14;;;;;;;44.70;34.13;;;21.60;70.70;;;;;;5009077;28;20025;-73
2021/09/05 09:19:45;;;;;;;45.72;33.33;;;21.80;69.40;;;;;;5020235;28;20800;-70
2021/09/05 09:22:19;;;;;;;42.25;32.85;;;22.30;67.60;;;;;;5013520;28;20744;-69
2021/09/05 09:24:46;;;;;;;41.38;32.92;;;22.60;66.00;;;;;;5006318;28;20044;-69
2021/09/05 09:27:12;;;;;;;40.40;31.23;;;23.10;65.50;;;;;;5016098;28;20041;-70
2021/09/05 09:29:39;;;;;;;41.00;30.85;;;23.00;62.90;;;;;;5003974;28;20065;-70
2021/09/05 09:32:05;;;;;;;41.75;32.42;;;23.20;62.80;;;;;;4996029;28;21172;-70
2021/09/05 09:34:46;;;;;;;42.17;31.95;;;23.10;62.30;;;;;;4996460;28;20038;-72
2021/09/05 09:37:23;;;;;;;42.95;33.45;;;23.30;62.00;;;;;;4996733;28;20425;-73
2021/09/05 09:39:59;;;;;;;42.33;31.48;;;23.30;61.60;;;;;;4997222;28;20049;-70
2021/09/05 09:42:35;;;;;;;46.13;35.08;;;23.50;63.40;;;;;;4995638;28;20045;-72
2021/09/05 09:45:08;;;;;;;39.25;31.80;;;23.60;62.10;;;;;;5004244;28;20045;-71
2021/09/05 09:47:52;;;;;;;38.97;31.10;;;23.20;62.40;;;;;;4998307;28;20030;-69
2021/09/05 09:50:21;;;;;;;36.63;28.80;;;23.60;62.60;;;;;;5007107;28;20258;-70
2021/09/05 09:52:48;;;;;;;39.95;30.05;;;23.90;61.00;;;;;;4997101;28;20128;-70
2021/09/05 09:55:14;;;;;;;38.28;29.65;;;24.30;60.60;;;;;;5004781;28;20536;-70
2021/09/05 09:57:40;;;;;;;36.65;29.45;;;24.50;58.90;;;;;;5010358;28;20084;-70
2021/09/05 10:00:07;;;;;;;39.33;30.30;;;24.50;58.90;;;;;;5012365;28;20100;-73
2021/09/05 10:02:37;;;;;;;32.08;27.48;;;24.60;57.50;;;;;;5017647;28;20033;-69
2021/09/05 10:05:03;;;;;;;34.92;27.90;;;24.50;58.50;;;;;;5020747;28;20072;-71
2021/09/05 10:07:30;;;;;;;34.75;27.98;;;24.80;58.80;;;;;;5013057;28;20042;-72
2021/09/05 10:09:59;;;;;;;34.00;27.55;;;25.10;57.40;;;;;;5013642;28;20108;-70
2021/09/05 10:12:24;;;;;;;36.60;29.85;;;25.40;56.60;;;;;;5015322;28;20033;-71
2021/09/05 10:14:52;;;;;;;36.63;29.15;;;25.30;56.40;;;;;;5004018;28;20037;-68
2021/09/05 10:17:21;;;;;;;36.92;29.45;;;25.00;57.00;;;;;;4993873;28;20054;-69
2021/09/05 10:19:48;;;;;;;36.33;28.63;;;24.90;57.50;;;;;;4996314;28;20073;-72
2021/09/05 10:22:18;;;;;;;36.05;27.90;;;24.80;57.20;;;;;;5006045;28;20413;-69
2021/09/05 10:24:47;;;;;;;35.38;27.83;;;25.10;57.80;;;;;;5003015;28;20084;-71
2021/09/05 10:27:14;;;;;;;33.90;27.77;;;25.30;57.70;;;;;;4998207;28;20466;-72
2021/09/05 10:30:10;;;;;;;28.95;24.55;;;25.60;56.60;;;;;;5003397;28;20036;-70
2021/09/05 10:32:48;;;;;;;31.20;26.45;;;25.90;55.70;;;;;;5016255;28;20389;-70
2021/09/05 10:35:26;;;;;;;33.08;26.65;;;26.10;55.20;;;;;;5015538;28;20041;-71
2021/09/05 10:38:25;;;;;;;31.23;25.00;;;26.40;53.50;;;;;;5011944;28;20092;-70
2021/09/05 10:41:20;;;;;;;32.90;24.80;;;26.10;54.50;;;;;;5014939;28;20059;-71
2021/09/05 10:43:51;;;;;;;33.42;25.52;;;26.40;54.10;;;;;;5020578;28;20140;-70
2021/09/05 10:46:21;;;;;;;33.80;26.63;;;26.50;54.00;;;;;;5017336;28;20052;-72
2021/09/05 10:48:49;;;;;;;31.17;25.13;;;26.30;53.10;;;;;;5024851;28;20484;-71
2021/09/05 10:51:17;;;;;;;28.13;23.80;;;26.40;53.10;;;;;;5018034;28;20480;-74
2021/09/05 10:54:01;;;;;;;31.95;24.75;;;26.10;53.70;;;;;;5016494;28;20494;-74
2021/09/05 10:56:42;;;;;;;33.07;24.23;;;26.00;54.60;;;;;;5017327;28;20056;-70
2021/09/05 10:59:16;;;;;;;27.70;22.08;;;26.10;53.20;;;;;;5020564;28;20041;-70
2021/09/05 11:01:48;;;;;;;26.90;22.55;;;26.20;52.10;;;;;;5018078;28;20037;-75
2021/09/05 11:04:14;;;;;;;29.05;22.55;;;26.60;53.20;;;;;;5013725;28;20045;-72
2021/09/05 11:06:56;;;;;;;24.65;20.20;;;26.70;52.30;;;;;;5022246;28;20045;-71
2021/09/05 11:12:07;;;;;;;25.40;20.20;;;26.00;53.80;;;;;;5021363;28;20057;-72
2021/09/05 11:14:35;;;;;;;22.83;18.75;;;25.80;53.30;;;;;;5020247;28;20094;-71
2021/09/05 11:17:11;;;;;;;25.42;19.15;;;25.70;53.10;;;;;;5019456;28;20066;-71
2021/09/05 11:20:09;;;;;;;21.73;17.40;;;25.80;53.60;;;;;;5018807;28;20037;-71
2021/09/05 11:22:46;;;;;;;23.67;20.63;;;26.10;53.50;;;;;;5021624;28;20041;-70
2021/09/05 11:25:43;;;;;;;26.50;20.30;;;26.10;53.40;;;;;;5018469;28;20050;-73
2021/09/05 11:28:10;;;;;;;21.17;18.02;;;25.60;53.50;;;;;;5015120;28;20045;-73
2021/09/05 11:30:38;;;;;;;25.23;18.98;;;25.50;55.20;;;;;;5018411;28;20128;-73
2021/09/05 11:33:12;;;;;;;24.13;19.73;;;25.60;55.50;;;;;;5018783;28;20034;-72
2021/09/05 11:35:45;;;;;;;22.17;17.95;;;25.80;53.80;;;;;;5021355;28;20950;-72
2021/09/05 11:38:12;;;;;;;24.40;18.35;;;26.00;54.00;;;;;;5009039;28;20030;-73
2021/09/05 11:40:42;;;;;;;20.10;16.33;;;26.20;53.30;;;;;;5017736;28;20038;-70
2021/09/05 11:43:09;;;;;;;20.30;17.83;;;26.30;52.30;;;;;;5018180;28;20172;-70
2021/09/05 11:45:41;;;;;;;21.08;17.08;;;26.30;52.30;;;;;;5017047;28;20661;-70
2021/09/05 11:48:08;;;;;;;19.13;16.00;;;26.40;52.00;;;;;;5014322;28;20397;-70
2021/09/05 11:50:36;;;;;;;20.90;17.02;;;26.50;52.10;;;;;;5015810;28;20069;-71
2021/09/05 11:53:02;;;;;;;21.67;15.88;;;26.50;50.90;;;;;;5015020;28;20037;-74
2021/09/05 11:55:27;;;;;;;18.88;15.50;;;26.40;51.10;;;;;;5020208;28;20068;-72
2021/09/05 11:57:54;;;;;;;20.80;17.20;;;26.30;52.30;;;;;;5005764;28;20041;-73
2021/09/05 12:00:27;;;;;;;18.02;14.88;;;26.50;52.50;;;;;;5017126;28;20358;-70
2021/09/05 12:02:53;;;;;;;22.13;17.80;;;26.60;52.80;;;;;;5017331;28;20049;-74
2021/09/05 12:05:19;;;;;;;18.83;16.27;;;26.80;52.70;;;;;;5017418;28;20041;-73
2021/09/05 12:07:45;;;;;;;19.77;16.35;;;26.80;53.60;;;;;;5017675;28;20079;-74
2021/09/05 12:10:14;;;;;;;26.05;15.05;;;26.70;53.20;;;;;;5017494;28;20037;-73
2021/09/05 12:12:41;;;;;;;19.02;15.98;;;27.00;52.60;;;;;;5019215;28;20033;-72
2021/09/05 12:15:15;;;;;;;17.58;15.10;;;27.20;50.90;;;;;;5018917;28;20037;-73
2021/09/05 12:17:45;;;;;;;;;;;27.40;47.90;;;;;;5021125;28;20319;-71
2021/09/05 12:20:12;;;;;;;17.35;13.30;;;27.30;49.50;;;;;;5018669;28;19956;-72
2021/09/05 12:22:55;;;;;;;17.67;14.43;;;27.40;49.80;;;;;;5021955;28;20092;-70
2021/09/05 12:25:26;;;;;;;18.25;14.18;;;27.30;48.80;;;;;;5020124;28;20050;-70
2021/09/05 12:27:56;;;;;;;15.43;13.23;;;27.30;49.30;;;;;;5022213;28;20030;-73
2021/09/05 12:30:44;;;;;;;17.60;13.40;;;27.20;48.20;;;;;;5014797;28;20049;-71
2021/09/05 12:33:16;;;;;;;17.35;13.43;;;27.30;48.70;;;;;;5019254;28;20075;-74
2021/09/05 12:35:53;;;;;;;16.85;13.18;;;27.30;48.00;;;;;;5018784;28;20044;-71